sensor_id;sensor_type;location;lat;lon;timestamp;pressure;altitude;pressure_sealevel;temperature
80537;BMP280;69867;47.074;15.404;2023-08-01T00:00:52;96801.25;;;19.57
80537;BMP280;69867;47.074;15.404;2023-08-01T00:03:18;96798.00;;;19.53
80537;BMP280;69867;47.074;15.404;2023-08-01T00:05:43;96797.66;;;19.45
80537;BMP280;69867;47.074;15.404;2023-08-01T00:08:08;96802.41;;;19.40
80537;BMP280;69867;47.074;15.404;2023-08-01T00:10:34;96795.78;;;19.34
80537;BMP280;69867;47.074;15.404;2023-08-01T00:12:59;96791.78;;;19.29
80537;BMP280;69867;47.074;15.404;2023-08-01T00:15:24;96779.88;;;19.23
80537;BMP280;69867;47.074;15.404;2023-08-01T00:17:50;96776.75;;;19.18
80537;BMP280;69867;47.074;15.404;2023-08-01T00:20:15;96777.69;;;19.17
80537;BMP280;69867;47.074;15.404;2023-08-01T00:22:40;96780.31;;;19.17
80537;BMP280;69867;47.074;15.404;2023-08-01T00:25:06;96784.22;;;19.11
80537;BMP280;69867;47.074;15.404;2023-08-01T00:27:31;96780.03;;;19.09
80537;BMP280;69867;47.074;15.404;2023-08-01T00:29:57;96780.97;;;19.08
80537;BMP280;69867;47.074;15.404;2023-08-01T00:32:22;96788.03;;;19.07
80537;BMP280;69867;47.074;15.404;2023-08-01T00:34:50;96783.59;;;19.08
80537;BMP280;69867;47.074;15.404;2023-08-01T00:37:15;96778.78;;;19.02
80537;BMP280;69867;47.074;15.404;2023-08-01T00:39:40;96782.34;;;19.01
80537;BMP280;69867;47.074;15.404;2023-08-01T00:42:06;96775.50;;;18.98
80537;BMP280;69867;47.074;15.404;2023-08-01T00:44:31;96773.59;;;19.00
80537;BMP280;69867;47.074;15.404;2023-08-01T00:46:57;96771.81;;;19.01
80537;BMP280;69867;47.074;15.404;2023-08-01T00:49:22;96759.72;;;18.98
80537;BMP280;69867;47.074;15.404;2023-08-01T00:51:47;96762.78;;;18.92
80537;BMP280;69867;47.074;15.404;2023-08-01T00:54:14;96752.13;;;18.94
80537;BMP280;69867;47.074;15.404;2023-08-01T00:56:39;96742.56;;;18.93
80537;BMP280;69867;47.074;15.404;2023-08-01T00:59:05;96739.72;;;18.96
80537;BMP280;69867;47.074;15.404;2023-08-01T01:01:30;96735.19;;;18.98
80537;BMP280;69867;47.074;15.404;2023-08-01T01:03:55;96735.19;;;18.98
80537;BMP280;69867;47.074;15.404;2023-08-01T01:08:49;96720.22;;;18.98
80537;BMP280;69867;47.074;15.404;2023-08-01T01:11:14;96720.00;;;19.01
80537;BMP280;69867;47.074;15.404;2023-08-01T01:13:40;96720.84;;;19.02
80537;BMP280;69867;47.074;15.404;2023-08-01T01:16:05;96714.75;;;19.01
80537;BMP280;69867;47.074;15.404;2023-08-01T01:18:31;96716.59;;;19.12
80537;BMP280;69867;47.074;15.404;2023-08-01T01:20:56;96699.78;;;19.02
80537;BMP280;69867;47.074;15.404;2023-08-01T01:23:22;96712.66;;;18.94
80537;BMP280;69867;47.074;15.404;2023-08-01T01:25:49;96701.28;;;18.93
80537;BMP280;69867;47.074;15.404;2023-08-01T01:28:15;96698.88;;;18.90
80537;BMP280;69867;47.074;15.404;2023-08-01T01:30:41;96691.19;;;18.87
80537;BMP280;69867;47.074;15.404;2023-08-01T01:33:08;96680.13;;;18.82
80537;BMP280;69867;47.074;15.404;2023-08-01T01:35:34;96681.09;;;18.81
80537;BMP280;69867;47.074;15.404;2023-08-01T01:38:00;96680.25;;;18.80
80537;BMP280;69867;47.074;15.404;2023-08-01T01:40:25;96680.25;;;18.80
80537;BMP280;69867;47.074;15.404;2023-08-01T01:42:50;96679.72;;;18.75
80537;BMP280;69867;47.074;15.404;2023-08-01T01:45:16;96685.13;;;18.61
80537;BMP280;69867;47.074;15.404;2023-08-01T01:47:41;96693.41;;;18.55
80537;BMP280;69867;47.074;15.404;2023-08-01T01:50:06;96688.88;;;18.57
80537;BMP280;69867;47.074;15.404;2023-08-01T01:52:32;96688.88;;;18.57
80537;BMP280;69867;47.074;15.404;2023-08-01T01:54:57;96673.31;;;18.54
80537;BMP280;69867;47.074;15.404;2023-08-01T01:57:22;96679.63;;;18.51
80537;BMP280;69867;47.074;15.404;2023-08-01T01:59:48;96679.63;;;18.51
80537;BMP280;69867;47.074;15.404;2023-08-01T02:02:13;96667.09;;;18.55
80537;BMP280;69867;47.074;15.404;2023-08-01T02:04:38;96664.38;;;18.57
80537;BMP280;69867;47.074;15.404;2023-08-01T02:07:04;96660.88;;;18.56
80537;BMP280;69867;47.074;15.404;2023-08-01T02:09:29;96658.25;;;18.56
80537;BMP280;69867;47.074;15.404;2023-08-01T02:11:55;96659.81;;;18.59
80537;BMP280;69867;47.074;15.404;2023-08-01T02:14:20;96662.34;;;18.60
80537;BMP280;69867;47.074;15.404;2023-08-01T02:16:45;96655.41;;;18.59
80537;BMP280;69867;47.074;15.404;2023-08-01T02:19:11;96651.66;;;18.63
80537;BMP280;69867;47.074;15.404;2023-08-01T02:21:36;96655.31;;;18.61
80537;BMP280;69867;47.074;15.404;2023-08-01T02:24:01;96664.25;;;18.58
80537;BMP280;69867;47.074;15.404;2023-08-01T02:26:27;96659.22;;;18.55
80537;BMP280;69867;47.074;15.404;2023-08-01T02:28:52;96654.25;;;18.50
80537;BMP280;69867;47.074;15.404;2023-08-01T02:31:17;96643.84;;;18.49
80537;BMP280;69867;47.074;15.404;2023-08-01T02:33:43;96646.47;;;18.49
80537;BMP280;69867;47.074;15.404;2023-08-01T02:36:08;96657.22;;;18.46
80537;BMP280;69867;47.074;15.404;2023-08-01T02:38:33;96645.84;;;18.45
80537;BMP280;69867;47.074;15.404;2023-08-01T02:40:59;96643.44;;;18.42
80537;BMP280;69867;47.074;15.404;2023-08-01T02:43:24;96641.03;;;18.39
80537;BMP280;69867;47.074;15.404;2023-08-01T02:45:49;96631.44;;;18.38
80537;BMP280;69867;47.074;15.404;2023-08-01T02:48:15;96628.19;;;18.35
80537;BMP280;69867;47.074;15.404;2023-08-01T02:50:40;96628.09;;;18.36
80537;BMP280;69867;47.074;15.404;2023-08-01T02:53:06;96633.56;;;18.20
80537;BMP280;69867;47.074;15.404;2023-08-01T02:55:31;96633.56;;;18.20
80537;BMP280;69867;47.074;15.404;2023-08-01T02:57:56;96623.03;;;18.20
80537;BMP280;69867;47.074;15.404;2023-08-01T03:00:22;96622.94;;;18.22
80537;BMP280;69867;47.074;15.404;2023-08-01T03:02:47;96612.41;;;18.22
80537;BMP280;69867;47.074;15.404;2023-08-01T03:05:12;96616.84;;;18.21
80537;BMP280;69867;47.074;15.404;2023-08-01T03:07:38;96617.38;;;18.27
80537;BMP280;69867;47.074;15.404;2023-08-01T03:10:03;96616.53;;;18.26
80537;BMP280;69867;47.074;15.404;2023-08-01T03:12:29;96603.47;;;18.25
80537;BMP280;69867;47.074;15.404;2023-08-01T03:14:54;96594.75;;;18.24
80537;BMP280;69867;47.074;15.404;2023-08-01T03:17:19;96591.16;;;18.25
80537;BMP280;69867;47.074;15.404;2023-08-01T03:19:45;96594.00;;;18.22
80537;BMP280;69867;47.074;15.404;2023-08-01T03:22:10;96588.75;;;18.22
80537;BMP280;69867;47.074;15.404;2023-08-01T03:24:36;96593.69;;;18.27
80537;BMP280;69867;47.074;15.404;2023-08-01T03:27:01;96592.31;;;18.34
80537;BMP280;69867;47.074;15.404;2023-08-01T03:29:27;96590.63;;;18.33
80537;BMP280;69867;47.074;15.404;2023-08-01T03:31:52;96586.53;;;18.29
80537;BMP280;69867;47.074;15.404;2023-08-01T03:34:18;96597.88;;;18.16
80537;BMP280;69867;47.074;15.404;2023-08-01T03:36:43;96605.56;;;18.19
80537;BMP280;69867;47.074;15.404;2023-08-01T03:39:08;96615.06;;;18.22
80537;BMP280;69867;47.074;15.404;2023-08-01T03:41:34;96606.31;;;18.21
80537;BMP280;69867;47.074;15.404;2023-08-01T03:43:59;96603.88;;;18.18
80537;BMP280;69867;47.074;15.404;2023-08-01T03:46:24;96613.66;;;18.16
80537;BMP280;69867;47.074;15.404;2023-08-01T03:48:50;96609.25;;;18.17
80537;BMP280;69867;47.074;15.404;2023-08-01T03:51:15;96610.91;;;18.18
80537;BMP280;69867;47.074;15.404;2023-08-01T03:53:40;96609.34;;;18.15
80537;BMP280;69867;47.074;15.404;2023-08-01T03:56:06;96606.72;;;18.15
80537;BMP280;69867;47.074;15.404;2023-08-01T03:58:31;96609.34;;;18.15
80537;BMP280;69867;47.074;15.404;2023-08-01T04:00:56;96601.91;;;18.22
80537;BMP280;69867;47.074;15.404;2023-08-01T04:03:22;96596.75;;;18.20
80537;BMP280;69867;47.074;15.404;2023-08-01T04:05:47;96590.34;;;18.25
80537;BMP280;69867;47.074;15.404;2023-08-01T04:08:12;96579.16;;;18.34
80537;BMP280;69867;47.074;15.404;2023-08-01T04:10:37;96583.25;;;18.38
80537;BMP280;69867;47.074;15.404;2023-08-01T04:13:03;96587.34;;;18.42
80537;BMP280;69867;47.074;15.404;2023-08-01T04:15:28;96585.25;;;18.47
80537;BMP280;69867;47.074;15.404;2023-08-01T04:17:53;96589.44;;;18.49
80537;BMP280;69867;47.074;15.404;2023-08-01T04:20:19;96588.38;;;18.52
80537;BMP280;69867;47.074;15.404;2023-08-01T04:22:44;96586.81;;;18.62
80537;BMP280;69867;47.074;15.404;2023-08-01T04:25:09;96588.56;;;18.74
80537;BMP280;69867;47.074;15.404;2023-08-01T04:27:35;96578.94;;;18.86
80537;BMP280;69867;47.074;15.404;2023-08-01T04:30:02;96569.16;;;18.88
80537;BMP280;69867;47.074;15.404;2023-08-01T04:32:27;96575.16;;;18.90
80537;BMP280;69867;47.074;15.404;2023-08-01T04:34:52;96571.34;;;18.94
80537;BMP280;69867;47.074;15.404;2023-08-01T04:37:17;96574.53;;;19.10
80537;BMP280;69867;47.074;15.404;2023-08-01T04:39:43;96584.50;;;19.18
80537;BMP280;69867;47.074;15.404;2023-08-01T04:42:08;96573.59;;;19.46
80537;BMP280;69867;47.074;15.404;2023-08-01T04:44:34;96581.38;;;19.72
80537;BMP280;69867;47.074;15.404;2023-08-01T04:46:59;96569.56;;;20.00
80537;BMP280;69867;47.074;15.404;2023-08-01T04:49:24;96567.06;;;20.32
80537;BMP280;69867;47.074;15.404;2023-08-01T04:51:51;96558.66;;;20.60
80537;BMP280;69867;47.074;15.404;2023-08-01T04:54:16;96559.63;;;20.82
80537;BMP280;69867;47.074;15.404;2023-08-01T04:56:41;96552.63;;;20.92
80537;BMP280;69867;47.074;15.404;2023-08-01T04:59:07;96558.38;;;21.61
80537;BMP280;69867;47.074;15.404;2023-08-01T05:01:32;96554.25;;;22.10
80537;BMP280;69867;47.074;15.404;2023-08-01T05:03:57;96560.75;;;22.26
80537;BMP280;69867;47.074;15.404;2023-08-01T05:06:23;96556.69;;;22.62
80537;BMP280;69867;47.074;15.404;2023-08-01T05:08:48;96568.97;;;22.23
80537;BMP280;69867;47.074;15.404;2023-08-01T05:11:13;96572.31;;;22.25
80537;BMP280;69867;47.074;15.404;2023-08-01T05:13:38;96561.84;;;22.24
80537;BMP280;69867;47.074;15.404;2023-08-01T05:16:04;96560.97;;;22.14
80537;BMP280;69867;47.074;15.404;2023-08-01T05:18:29;96557.47;;;21.92
80537;BMP280;69867;47.074;15.404;2023-08-01T05:20:54;96558.38;;;21.82
80537;BMP280;69867;47.074;15.404;2023-08-01T05:23:20;96556.44;;;21.63
80537;BMP280;69867;47.074;15.404;2023-08-01T05:25:45;96552.25;;;21.60
80537;BMP280;69867;47.074;15.404;2023-08-01T05:28:10;96553.91;;;21.82
80537;BMP280;69867;47.074;15.404;2023-08-01T05:30:36;96545.66;;;21.96
80537;BMP280;69867;47.074;15.404;2023-08-01T05:33:01;96547.97;;;22.31
80537;BMP280;69867;47.074;15.404;2023-08-01T05:35:26;96547.97;;;22.31
80537;BMP280;69867;47.074;15.404;2023-08-01T05:37:52;96538.84;;;23.14
80537;BMP280;69867;47.074;15.404;2023-08-01T05:40:17;96544.84;;;23.36
80537;BMP280;69867;47.074;15.404;2023-08-01T05:42:43;96541.25;;;23.56
80537;BMP280;69867;47.074;15.404;2023-08-01T05:45:08;96532.84;;;23.31
80537;BMP280;69867;47.074;15.404;2023-08-01T05:47:34;96539.53;;;23.36
80537;BMP280;69867;47.074;15.404;2023-08-01T05:49:59;96535.78;;;23.48
80537;BMP280;69867;47.074;15.404;2023-08-01T05:52:24;96532.41;;;23.36
80537;BMP280;69867;47.074;15.404;2023-08-01T05:54:50;96529.91;;;23.73
80537;BMP280;69867;47.074;15.404;2023-08-01T05:57:15;96522.09;;;23.72
80537;BMP280;69867;47.074;15.404;2023-08-01T05:59:40;96522.50;;;23.77
80537;BMP280;69867;47.074;15.404;2023-08-01T06:02:06;96516.28;;;23.58
80537;BMP280;69867;47.074;15.404;2023-08-01T06:04:31;96519.75;;;23.49
80537;BMP280;69867;47.074;15.404;2023-08-01T06:06:57;96520.00;;;23.17
80537;BMP280;69867;47.074;15.404;2023-08-01T06:09:22;96514.16;;;23.23
80537;BMP280;69867;47.074;15.404;2023-08-01T06:11:47;96513.72;;;23.18
80537;BMP280;69867;47.074;15.404;2023-08-01T06:14:13;96507.19;;;23.42
80537;BMP280;69867;47.074;15.404;2023-08-01T06:16:38;96496.72;;;23.69
80537;BMP280;69867;47.074;15.404;2023-08-01T06:19:03;96495.19;;;24.04
80537;BMP280;69867;47.074;15.404;2023-08-01T06:21:29;96502.28;;;24.50
80537;BMP280;69867;47.074;15.404;2023-08-01T06:23:54;96495.09;;;24.60
80537;BMP280;69867;47.074;15.404;2023-08-01T06:26:20;96494.59;;;25.02
80537;BMP280;69867;47.074;15.404;2023-08-01T06:28:45;96490.16;;;24.93
80537;BMP280;69867;47.074;15.404;2023-08-01T06:31:10;96489.69;;;24.79
80537;BMP280;69867;47.074;15.404;2023-08-01T06:33:35;96487.38;;;25.30
80537;BMP280;69867;47.074;15.404;2023-08-01T06:36:01;96490.06;;;25.56
80537;BMP280;69867;47.074;15.404;2023-08-01T06:38:26;96477.47;;;25.40
80537;BMP280;69867;47.074;15.404;2023-08-01T06:40:51;96482.47;;;25.43
80537;BMP280;69867;47.074;15.404;2023-08-01T06:43:17;96487.88;;;25.33
80537;BMP280;69867;47.074;15.404;2023-08-01T06:45:42;96496.69;;;24.80
80537;BMP280;69867;47.074;15.404;2023-08-01T06:48:07;96494.06;;;24.43
80537;BMP280;69867;47.074;15.404;2023-08-01T06:50:33;96511.31;;;23.92
80537;BMP280;69867;47.074;15.404;2023-08-01T06:52:58;96502.53;;;23.82
80537;BMP280;69867;47.074;15.404;2023-08-01T06:55:23;96503.53;;;23.72
80537;BMP280;69867;47.074;15.404;2023-08-01T06:57:49;96501.03;;;23.70
80537;BMP280;69867;47.074;15.404;2023-08-01T07:00:14;96505.09;;;23.55
80537;BMP280;69867;47.074;15.404;2023-08-01T07:02:40;96498.22;;;23.81
80537;BMP280;69867;47.074;15.404;2023-08-01T07:05:05;96494.00;;;23.88
80537;BMP280;69867;47.074;15.404;2023-08-01T07:07:30;96484.69;;;24.12
80537;BMP280;69867;47.074;15.404;2023-08-01T07:09:56;96483.81;;;24.21
80537;BMP280;69867;47.074;15.404;2023-08-01T07:12:21;96482.13;;;24.20
80537;BMP280;69867;47.074;15.404;2023-08-01T07:14:46;96478.97;;;24.44
80537;BMP280;69867;47.074;15.404;2023-08-01T07:17:12;96474.28;;;24.55
80537;BMP280;69867;47.074;15.404;2023-08-01T07:19:37;96468.97;;;24.83
80537;BMP280;69867;47.074;15.404;2023-08-01T07:22:03;96470.03;;;24.90
80537;BMP280;69867;47.074;15.404;2023-08-01T07:24:28;96473.06;;;24.22
80537;BMP280;69867;47.074;15.404;2023-08-01T07:26:53;96470.94;;;24.26
80537;BMP280;69867;47.074;15.404;2023-08-01T07:29:19;96470.94;;;24.26
80537;BMP280;69867;47.074;15.404;2023-08-01T07:31:44;96474.44;;;24.54
80537;BMP280;69867;47.074;15.404;2023-08-01T07:34:09;96475.94;;;24.39
80537;BMP280;69867;47.074;15.404;2023-08-01T07:36:35;96472.22;;;24.22
80537;BMP280;69867;47.074;15.404;2023-08-01T07:39:00;96469.78;;;24.38
80537;BMP280;69867;47.074;15.404;2023-08-01T07:41:25;96468.81;;;24.39
80537;BMP280;69867;47.074;15.404;2023-08-01T07:43:51;96465.63;;;24.26
80537;BMP280;69867;47.074;15.404;2023-08-01T07:46:16;96458.63;;;24.35
80537;BMP280;69867;47.074;15.404;2023-08-01T07:48:41;96453.47;;;24.33
80537;BMP280;69867;47.074;15.404;2023-08-01T07:51:07;96443.78;;;24.42
80537;BMP280;69867;47.074;15.404;2023-08-01T07:53:32;96448.16;;;24.33
80537;BMP280;69867;47.074;15.404;2023-08-01T07:55:57;96452.84;;;24.12
80537;BMP280;69867;47.074;15.404;2023-08-01T07:58:23;96461.44;;;24.33
80537;BMP280;69867;47.074;15.404;2023-08-01T08:00:48;96455.91;;;24.17
80537;BMP280;69867;47.074;15.404;2023-08-01T08:03:13;96463.41;;;24.31
80537;BMP280;69867;47.074;15.404;2023-08-01T08:05:39;96457.38;;;24.56
80537;BMP280;69867;47.074;15.404;2023-08-01T08:08:05;96452.97;;;24.65
80537;BMP280;69867;47.074;15.404;2023-08-01T08:10:30;96453.25;;;24.72
80537;BMP280;69867;47.074;15.404;2023-08-01T08:12:55;96455.00;;;24.81
80537;BMP280;69867;47.074;15.404;2023-08-01T08:15:22;96448.97;;;24.06
80537;BMP280;69867;47.074;15.404;2023-08-01T08:17:47;96450.28;;;24.20
80537;BMP280;69867;47.074;15.404;2023-08-01T08:20:12;96447.63;;;24.30
80537;BMP280;69867;47.074;15.404;2023-08-01T08:22:38;96445.91;;;24.01
80537;BMP280;69867;47.074;15.404;2023-08-01T08:25:03;96450.16;;;23.84
80537;BMP280;69867;47.074;15.404;2023-08-01T08:27:28;96443.69;;;23.97
80537;BMP280;69867;47.074;15.404;2023-08-01T08:29:54;96446.06;;;24.00
80537;BMP280;69867;47.074;15.404;2023-08-01T08:32:19;96456.31;;;23.85
80537;BMP280;69867;47.074;15.404;2023-08-01T08:34:44;96456.25;;;23.48
80537;BMP280;69867;47.074;15.404;2023-08-01T08:37:10;96457.50;;;23.63
80537;BMP280;69867;47.074;15.404;2023-08-01T08:39:35;96453.66;;;23.85
80537;BMP280;69867;47.074;15.404;2023-08-01T08:42:00;96445.56;;;24.14
80537;BMP280;69867;47.074;15.404;2023-08-01T08:44:26;96440.34;;;24.32
80537;BMP280;69867;47.074;15.404;2023-08-01T08:46:54;96443.31;;;24.46
80537;BMP280;69867;47.074;15.404;2023-08-01T08:49:20;96438.69;;;24.48
80537;BMP280;69867;47.074;15.404;2023-08-01T08:51:46;96440.22;;;24.23
80537;BMP280;69867;47.074;15.404;2023-08-01T08:54:13;96430.41;;;24.34
80537;BMP280;69867;47.074;15.404;2023-08-01T08:56:38;96434.13;;;24.86
80537;BMP280;69867;47.074;15.404;2023-08-01T08:59:04;96427.19;;;25.29
80537;BMP280;69867;47.074;15.404;2023-08-01T09:01:31;96418.84;;;25.67
80537;BMP280;69867;47.074;15.404;2023-08-01T09:03:57;96424.75;;;25.87
80537;BMP280;69867;47.074;15.404;2023-08-01T09:06:29;96426.44;;;26.22
80537;BMP280;69867;47.074;15.404;2023-08-01T09:09:12;96427.84;;;26.34
80537;BMP280;69867;47.074;15.404;2023-08-01T09:11:48;96424.63;;;26.73
80537;BMP280;69867;47.074;15.404;2023-08-01T09:14:15;96421.63;;;26.76
80537;BMP280;69867;47.074;15.404;2023-08-01T09:16:41;96424.97;;;26.86
80537;BMP280;69867;47.074;15.404;2023-08-01T09:19:07;96418.31;;;26.90
80537;BMP280;69867;47.074;15.404;2023-08-01T09:21:33;96414.00;;;27.14
80537;BMP280;69867;47.074;15.404;2023-08-01T09:26:35;96416.56;;;26.49
80537;BMP280;69867;47.074;15.404;2023-08-01T09:29:00;96411.63;;;26.94
80537;BMP280;69867;47.074;15.404;2023-08-01T09:31:27;96394.69;;;27.36
80537;BMP280;69867;47.074;15.404;2023-08-01T09:33:53;96392.53;;;27.31
80537;BMP280;69867;47.074;15.404;2023-08-01T09:36:23;96392.16;;;27.51
80537;BMP280;69867;47.074;15.404;2023-08-01T09:38:49;96399.66;;;27.47
80537;BMP280;69867;47.074;15.404;2023-08-01T09:41:18;96401.66;;;27.29
80537;BMP280;69867;47.074;15.404;2023-08-01T09:43:46;96403.66;;;27.27
80537;BMP280;69867;47.074;15.404;2023-08-01T09:46:11;96407.66;;;27.15
80537;BMP280;69867;47.074;15.404;2023-08-01T09:48:37;96407.47;;;26.84
80537;BMP280;69867;47.074;15.404;2023-08-01T09:51:09;96408.31;;;26.84
80537;BMP280;69867;47.074;15.404;2023-08-01T09:53:45;96410.13;;;26.75
80537;BMP280;69867;47.074;15.404;2023-08-01T09:56:11;96405.59;;;26.60
80537;BMP280;69867;47.074;15.404;2023-08-01T09:58:37;96400.28;;;26.60
80537;BMP280;69867;47.074;15.404;2023-08-01T10:01:03;96395.09;;;26.58
80537;BMP280;69867;47.074;15.404;2023-08-01T10:03:29;96390.94;;;26.64
80537;BMP280;69867;47.074;15.404;2023-08-01T10:05:55;96376.97;;;25.77
80537;BMP280;69867;47.074;15.404;2023-08-01T10:08:21;96362.22;;;25.57
80537;BMP280;69867;47.074;15.404;2023-08-01T10:10:48;96362.66;;;25.70
80537;BMP280;69867;47.074;15.404;2023-08-01T10:13:13;96363.53;;;25.53
80537;BMP280;69867;47.074;15.404;2023-08-01T10:15:39;96361.66;;;25.71
80537;BMP280;69867;47.074;15.404;2023-08-01T10:18:04;96354.00;;;25.68
80537;BMP280;69867;47.074;15.404;2023-08-01T10:20:31;96354.31;;;25.65
80537;BMP280;69867;47.074;15.404;2023-08-01T10:22:56;96349.38;;;25.78
80537;BMP280;69867;47.074;15.404;2023-08-01T10:25:23;96350.06;;;25.80
80537;BMP280;69867;47.074;15.404;2023-08-01T10:28:02;96353.72;;;25.79
80537;BMP280;69867;47.074;15.404;2023-08-01T10:30:29;96352.31;;;25.67
80537;BMP280;69867;47.074;15.404;2023-08-01T10:32:58;96354.00;;;25.42
80537;BMP280;69867;47.074;15.404;2023-08-01T10:35:34;96360.06;;;25.27
80537;BMP280;69867;47.074;15.404;2023-08-01T10:38:09;96360.47;;;25.14
80537;BMP280;69867;47.074;15.404;2023-08-01T10:40:42;96356.09;;;25.05
80537;BMP280;69867;47.074;15.404;2023-08-01T10:43:23;96358.38;;;25.00
80537;BMP280;69867;47.074;15.404;2023-08-01T10:46:00;96348.88;;;24.97
80537;BMP280;69867;47.074;15.404;2023-08-01T10:48:25;96355.03;;;24.80
80537;BMP280;69867;47.074;15.404;2023-08-01T10:50:55;96357.13;;;24.58
80537;BMP280;69867;47.074;15.404;2023-08-01T10:53:20;96357.75;;;24.07
80537;BMP280;69867;47.074;15.404;2023-08-01T10:55:46;96355.34;;;24.14
80537;BMP280;69867;47.074;15.404;2023-08-01T10:58:12;96354.13;;;24.08
80537;BMP280;69867;47.074;15.404;2023-08-01T11:00:37;96348.78;;;23.90
80537;BMP280;69867;47.074;15.404;2023-08-01T11:03:03;96331.47;;;23.86
80537;BMP280;69867;47.074;15.404;2023-08-01T11:05:28;96330.06;;;23.65
80537;BMP280;69867;47.074;15.404;2023-08-01T11:07:58;96330.06;;;23.65
80537;BMP280;69867;47.074;15.404;2023-08-01T11:10:31;96337.25;;;23.35
80537;BMP280;69867;47.074;15.404;2023-08-01T11:12:57;96342.44;;;23.17
80537;BMP280;69867;47.074;15.404;2023-08-01T11:15:23;96335.09;;;23.02
80537;BMP280;69867;47.074;15.404;2023-08-01T11:17:50;96334.28;;;22.91
80537;BMP280;69867;47.074;15.404;2023-08-01T11:20:17;96326.06;;;22.85
80537;BMP280;69867;47.074;15.404;2023-08-01T11:22:57;96322.59;;;22.84
80537;BMP280;69867;47.074;15.404;2023-08-01T11:25:39;96324.53;;;22.73
80537;BMP280;69867;47.074;15.404;2023-08-01T11:28:09;96326.06;;;22.85
80537;BMP280;69867;47.074;15.404;2023-08-01T11:30:35;96316.88;;;22.89
80537;BMP280;69867;47.074;15.404;2023-08-01T11:33:01;96308.03;;;23.08
80537;BMP280;69867;47.074;15.404;2023-08-01T11:35:27;96303.00;;;23.14
80537;BMP280;69867;47.074;15.404;2023-08-01T11:37:53;96291.88;;;23.01
80537;BMP280;69867;47.074;15.404;2023-08-01T11:40:19;96293.38;;;23.13
80537;BMP280;69867;47.074;15.404;2023-08-01T11:42:49;96298.81;;;23.12
80537;BMP280;69867;47.074;15.404;2023-08-01T11:45:14;96297.16;;;23.11
80537;BMP280;69867;47.074;15.404;2023-08-01T11:47:47;96297.25;;;23.19
80537;BMP280;69867;47.074;15.404;2023-08-01T11:50:12;96294.72;;;23.27
80537;BMP280;69867;47.074;15.404;2023-08-01T11:52:37;96293.69;;;23.38
80537;BMP280;69867;47.074;15.404;2023-08-01T11:55:03;96289.34;;;23.56
80537;BMP280;69867;47.074;15.404;2023-08-01T11:57:28;96289.94;;;23.40
80537;BMP280;69867;47.074;15.404;2023-08-01T11:59:55;96281.00;;;23.78
80537;BMP280;69867;47.074;15.404;2023-08-01T12:02:24;96291.25;;;23.91
80537;BMP280;69867;47.074;15.404;2023-08-01T12:04:51;96296.69;;;23.89
80537;BMP280;69867;47.074;15.404;2023-08-01T12:07:16;96301.88;;;23.64
80537;BMP280;69867;47.074;15.404;2023-08-01T12:09:43;96293.63;;;23.67
80537;BMP280;69867;47.074;15.404;2023-08-01T12:12:09;96293.69;;;23.47
80537;BMP280;69867;47.074;15.404;2023-08-01T12:14:40;96299.53;;;23.60
80537;BMP280;69867;47.074;15.404;2023-08-01T12:17:05;96299.28;;;23.44
80537;BMP280;69867;47.074;15.404;2023-08-01T12:19:30;96280.03;;;23.05
80537;BMP280;69867;47.074;15.404;2023-08-01T12:21:56;96290.53;;;22.87
80537;BMP280;69867;47.074;15.404;2023-08-01T12:24:21;96294.72;;;22.71
80537;BMP280;69867;47.074;15.404;2023-08-01T12:26:46;96290.13;;;22.63
80537;BMP280;69867;47.074;15.404;2023-08-01T12:29:12;96293.34;;;22.47
80537;BMP280;69867;47.074;15.404;2023-08-01T12:31:37;96291.94;;;22.43
80537;BMP280;69867;47.074;15.404;2023-08-01T12:34:03;96301.44;;;22.36
80537;BMP280;69867;47.074;15.404;2023-08-01T12:36:28;96310.06;;;22.28
80537;BMP280;69867;47.074;15.404;2023-08-01T12:38:53;96323.38;;;22.08
80537;BMP280;69867;47.074;15.404;2023-08-01T12:41:19;96338.22;;;21.89
80537;BMP280;69867;47.074;15.404;2023-08-01T12:43:44;96344.38;;;21.59
80537;BMP280;69867;47.074;15.404;2023-08-01T12:46:09;96373.72;;;20.52
80537;BMP280;69867;47.074;15.404;2023-08-01T12:48:35;96409.13;;;19.62
80537;BMP280;69867;47.074;15.404;2023-08-01T12:51:00;96393.16;;;18.83
80537;BMP280;69867;47.074;15.404;2023-08-01T12:53:25;96387.59;;;18.64
80537;BMP280;69867;47.074;15.404;2023-08-01T12:55:51;96383.63;;;18.35
80537;BMP280;69867;47.074;15.404;2023-08-01T12:58:17;96382.25;;;18.05
80537;BMP280;69867;47.074;15.404;2023-08-01T13:00:43;96399.75;;;18.17
80537;BMP280;69867;47.074;15.404;2023-08-01T13:03:09;96393.84;;;17.90
80537;BMP280;69867;47.074;15.404;2023-08-01T13:05:35;96387.47;;;17.81
80537;BMP280;69867;47.074;15.404;2023-08-01T13:08:01;96388.13;;;17.47
80537;BMP280;69867;47.074;15.404;2023-08-01T13:10:30;96403.91;;;17.34
80537;BMP280;69867;47.074;15.404;2023-08-01T13:12:55;96402.13;;;17.22
80537;BMP280;69867;47.074;15.404;2023-08-01T13:15:20;96401.28;;;17.09
80537;BMP280;69867;47.074;15.404;2023-08-01T13:17:46;96380.06;;;16.99
80537;BMP280;69867;47.074;15.404;2023-08-01T13:20:11;96388.31;;;16.80
80537;BMP280;69867;47.074;15.404;2023-08-01T13:22:37;96400.31;;;16.57
80537;BMP280;69867;47.074;15.404;2023-08-01T13:25:02;96401.53;;;16.52
80537;BMP280;69867;47.074;15.404;2023-08-01T13:27:27;96448.84;;;17.42
80537;BMP280;69867;47.074;15.404;2023-08-01T13:29:53;96486.66;;;16.87
80537;BMP280;69867;47.074;15.404;2023-08-01T13:32:18;96484.91;;;16.47
80537;BMP280;69867;47.074;15.404;2023-08-01T13:34:43;96482.13;;;16.36
80537;BMP280;69867;47.074;15.404;2023-08-01T13:37:09;96469.56;;;16.41
80537;BMP280;69867;47.074;15.404;2023-08-01T13:39:35;96455.13;;;16.48
80537;BMP280;69867;47.074;15.404;2023-08-01T13:42:00;96449.16;;;16.46
80537;BMP280;69867;47.074;15.404;2023-08-01T13:44:25;96424.06;;;16.42
80537;BMP280;69867;47.074;15.404;2023-08-01T13:46:51;96434.56;;;16.42
80537;BMP280;69867;47.074;15.404;2023-08-01T13:49:16;96411.69;;;16.44
80537;BMP280;69867;47.074;15.404;2023-08-01T13:51:41;96384.13;;;16.51
80537;BMP280;69867;47.074;15.404;2023-08-01T13:54:07;96378.69;;;16.54